createdAt,value
2023-05-19T00:00:32.372Z,96645.72
2023-05-19T00:03:01.745Z,96643.63
2023-05-19T00:05:31.262Z,96641.75
2023-05-19T00:08:01.914Z,96643.09
2023-05-19T00:10:33.767Z,96640.22
2023-05-19T00:13:03.112Z,96645.88
2023-05-19T00:15:32.335Z,96650.88
2023-05-19T00:18:01.250Z,96655.03
2023-05-19T00:20:30.549Z,96655.28
2023-05-19T00:22:59.565Z,96662.97
2023-05-19T00:25:28.539Z,96667.47
2023-05-19T00:27:59.072Z,96665.50
2023-05-19T00:30:29.867Z,96671.44
2023-05-19T00:32:59.356Z,96670.44
2023-05-19T00:35:28.172Z,96668.88
2023-05-19T00:37:57.022Z,96678.38
2023-05-19T00:40:27.867Z,96663.72
2023-05-19T00:42:56.811Z,96668.75
2023-05-19T00:45:26.604Z,96673.13
2023-05-19T00:47:56.281Z,96675.72
2023-05-19T00:50:25.295Z,96684.03
2023-05-19T00:52:54.250Z,96677.38
2023-05-19T00:55:30.056Z,96685.56
2023-05-19T00:57:59.708Z,96695.78
2023-05-19T01:00:30.913Z,96684.72
2023-05-19T01:03:00.183Z,96699.41
2023-05-19T01:05:29.276Z,96696.72
2023-05-19T01:07:58.154Z,96703.06
2023-05-19T01:10:27.017Z,96698.56
2023-05-19T01:12:55.914Z,96707.41
2023-05-19T01:15:27.958Z,96709.41
2023-05-19T01:18:09.031Z,96708.63
2023-05-19T01:20:58.601Z,96699.84
2023-05-19T01:23:55.551Z,96708.84
2023-05-19T01:26:50.863Z,96707.94
2023-05-19T01:29:37.892Z,96713.63
2023-05-19T01:32:08.635Z,96707.81
2023-05-19T01:34:42.880Z,96710.16
2023-05-19T01:37:14.042Z,96720.94
2023-05-19T01:39:45.398Z,96718.09
2023-05-19T01:42:15.437Z,96718.59
2023-05-19T01:44:44.976Z,96715.78
2023-05-19T01:47:14.786Z,96714.34
2023-05-19T01:49:44.628Z,96723.84
2023-05-19T01:52:13.524Z,96718.94
2023-05-19T01:54:42.410Z,96726.69
2023-05-19T01:57:25.198Z,96708.31
2023-05-19T02:00:10.069Z,96710.19
2023-05-19T02:03:04.530Z,96720.03
2023-05-19T02:06:00.146Z,96718.75
2023-05-19T02:08:52.177Z,96717.69
2023-05-19T02:11:28.239Z,96720.72
2023-05-19T02:14:02.124Z,96723.38
2023-05-19T02:16:31.409Z,96741.88
2023-05-19T02:19:00.589Z,96738.16
2023-05-19T02:21:29.521Z,96737.97
2023-05-19T02:23:58.478Z,96733.53
2023-05-19T02:26:27.541Z,96736.13
2023-05-19T02:28:56.845Z,96736.69
2023-05-19T02:31:26.696Z,96737.94
2023-05-19T02:33:55.572Z,96734.19
2023-05-19T02:36:24.573Z,96745.88
2023-05-19T02:38:53.522Z,96736.53
2023-05-19T02:41:23.205Z,96750.16
2023-05-19T02:43:52.128Z,96738.91
2023-05-19T02:46:21.346Z,96753.75
2023-05-19T02:48:50.409Z,96749.50
2023-05-19T02:51:19.352Z,96742.94
2023-05-19T02:53:48.205Z,96748.44
2023-05-19T02:56:17.101Z,96746.13
2023-05-19T02:58:46.321Z,96740.69
2023-05-19T03:01:17.138Z,96740.69
2023-05-19T03:03:46.259Z,96738.75
2023-05-19T03:06:16.136Z,96746.13
2023-05-19T03:08:45.674Z,96758.56
2023-05-19T03:11:16.051Z,96749.56
2023-05-19T03:13:45.026Z,96744.41
2023-05-19T03:16:14.634Z,96748.25
2023-05-19T03:18:44.130Z,96743.88
2023-05-19T03:21:13.082Z,96744.81
2023-05-19T03:23:42.055Z,96739.88
2023-05-19T03:26:11.867Z,96755.78
2023-05-19T03:28:40.934Z,96757.09
2023-05-19T03:31:10.288Z,96766.94
2023-05-19T03:33:40.880Z,96751.13
2023-05-19T03:36:10.817Z,96751.88
2023-05-19T03:38:41.082Z,96746.41
2023-05-19T03:41:10.031Z,96756.09
2023-05-19T03:43:38.875Z,96762.94
2023-05-19T03:46:09.712Z,96747.91
2023-05-19T03:48:44.814Z,96750.44
2023-05-19T03:51:39.972Z,96759.09
2023-05-19T03:54:23.953Z,96757.00
2023-05-19T03:56:53.217Z,96752.81
2023-05-19T03:59:24.305Z,96754.69
2023-05-19T04:01:54.189Z,96748.41
2023-05-19T04:04:23.440Z,96747.69
2023-05-19T04:06:52.518Z,96748.28
2023-05-19T04:09:24.675Z,96754.47
2023-05-19T04:11:53.830Z,96759.50
2023-05-19T04:14:22.736Z,96761.31
2023-05-19T04:16:51.943Z,96764.16
2023-05-19T04:19:21.160Z,96776.25
2023-05-19T04:21:50.362Z,96762.66
2023-05-19T04:24:19.528Z,96762.81
2023-05-19T04:26:49.294Z,96777.06
2023-05-19T04:29:19.897Z,96776.81
2023-05-19T04:31:49.632Z,96766.16
2023-05-19T04:34:20.488Z,96761.28
2023-05-19T04:36:52.469Z,96765.50
2023-05-19T04:39:23.700Z,96766.44
2023-05-19T04:41:55.786Z,96761.44
2023-05-19T04:44:25.791Z,96768.75
2023-05-19T04:46:54.899Z,96762.09
2023-05-19T04:49:25.227Z,96760.09
2023-05-19T04:51:55.815Z,96763.69
2023-05-19T04:54:29.313Z,96757.28
2023-05-19T04:56:58.298Z,96745.34
2023-05-19T04:59:30.244Z,96762.72
2023-05-19T05:02:00.683Z,96772.31
2023-05-19T05:04:32.128Z,96754.56
2023-05-19T05:07:01.290Z,96754.00
2023-05-19T05:09:30.698Z,96751.53
2023-05-19T05:12:02.929Z,96746.91
2023-05-19T05:14:32.845Z,96739.69
2023-05-19T05:17:02.157Z,96751.06
2023-05-19T05:19:31.726Z,96758.03
2023-05-19T05:22:01.402Z,96748.78
2023-05-19T05:24:30.679Z,96763.19
2023-05-19T05:27:02.115Z,96767.56
2023-05-19T05:29:32.637Z,96768.03
2023-05-19T05:32:03.198Z,96761.50
2023-05-19T05:34:32.566Z,96770.38
2023-05-19T05:37:01.990Z,96768.38
2023-05-19T05:39:32.390Z,96771.06
2023-05-19T05:42:01.904Z,96773.25
2023-05-19T05:44:31.209Z,96781.16
2023-05-19T05:47:00.754Z,96764.41
2023-05-19T05:49:30.338Z,96774.91
2023-05-19T05:52:05.617Z,96772.91
2023-05-19T05:54:42.259Z,96767.06
2023-05-19T05:57:11.998Z,96758.94
2023-05-19T05:59:42.396Z,96766.75
2023-05-19T06:02:13.395Z,96762.09
2023-05-19T06:04:42.513Z,96775.66
2023-05-19T06:07:11.551Z,96770.63
2023-05-19T06:09:41.501Z,96766.31
2023-05-19T06:12:11.999Z,96763.66
2023-05-19T06:14:46.868Z,96774.16
2023-05-19T06:17:38.612Z,96766.34
2023-05-19T06:20:09.433Z,96762.06
2023-05-19T06:22:38.467Z,96753.13
2023-05-19T06:25:09.597Z,96766.75
2023-05-19T06:27:38.655Z,96775.28
2023-05-19T06:30:09.311Z,96770.59
2023-05-19T06:32:48.393Z,96746.50
2023-05-19T06:35:17.372Z,96775.69
2023-05-19T06:37:46.278Z,96773.75
2023-05-19T06:40:15.674Z,96754.31
2023-05-19T06:42:45.529Z,96760.13
2023-05-19T06:45:33.026Z,96750.38
2023-05-19T06:48:04.663Z,96760.00
2023-05-19T06:50:33.879Z,96762.28
2023-05-19T06:53:03.101Z,96749.25
2023-05-19T06:55:33.504Z,96749.13
2023-05-19T06:58:03.334Z,96752.91
2023-05-19T07:00:33.208Z,96753.75
2023-05-19T07:03:04.046Z,96762.22
2023-05-19T07:05:33.420Z,96739.53
2023-05-19T07:08:03.779Z,96754.41
2023-05-19T07:10:33.876Z,96741.94
2023-05-19T07:13:03.407Z,96746.53
2023-05-19T07:15:35.010Z,96740.56
2023-05-19T07:18:04.016Z,96743.53
2023-05-19T07:20:33.097Z,96741.56
2023-05-19T07:23:03.305Z,96743.28
2023-05-19T07:25:32.415Z,96746.94
2023-05-19T07:28:01.879Z,96751.66
2023-05-19T07:30:30.978Z,96767.72
2023-05-19T07:33:00.299Z,96756.09
2023-05-19T07:35:29.376Z,96747.59
2023-05-19T07:37:58.302Z,96756.19
2023-05-19T07:40:27.192Z,96751.94
2023-05-19T07:42:56.152Z,96749.63
2023-05-19T07:45:25.038Z,96740.69
2023-05-19T07:47:55.289Z,96757.03
2023-05-19T07:50:24.436Z,96758.97
2023-05-19T07:52:53.519Z,96750.03
2023-05-19T07:55:23.805Z,96761.69
2023-05-19T07:57:52.844Z,96755.88
2023-05-19T08:00:22.685Z,96753.13
2023-05-19T08:02:53.575Z,96753.91
2023-05-19T08:05:22.630Z,96750.03
2023-05-19T08:07:51.623Z,96761.31
2023-05-19T08:10:20.489Z,96764.03
2023-05-19T08:12:49.310Z,96771.03
2023-05-19T08:15:19.524Z,96757.78
2023-05-19T08:17:48.861Z,96760.84
2023-05-19T08:20:17.848Z,96755.00
2023-05-19T08:22:46.711Z,96755.00
2023-05-19T08:25:15.570Z,96751.09
2023-05-19T08:27:44.477Z,96758.53
2023-05-19T08:30:13.756Z,96767.09
2023-05-19T08:32:43.103Z,96759.34
2023-05-19T08:35:12.228Z,96765.19
2023-05-19T08:37:41.574Z,96776.88
2023-05-19T08:40:16.850Z,96780.78
2023-05-19T08:42:46.907Z,96779.59
2023-05-19T08:45:16.505Z,96780.38
2023-05-19T08:47:48.026Z,96788.94
2023-05-19T08:50:26.230Z,96791.66
2023-05-19T08:53:04.206Z,96788.84
2023-05-19T08:55:59.794Z,96789.97
2023-05-19T08:58:29.035Z,96796.94
2023-05-19T09:01:00.778Z,96795.31
2023-05-19T09:03:30.933Z,96793.31
2023-05-19T09:06:00.296Z,96797.19
2023-05-19T09:08:29.518Z,96793.28
2023-05-19T09:10:58.545Z,96795.53
2023-05-19T09:13:27.607Z,96802.47
2023-05-19T09:15:58.139Z,96800.19
2023-05-19T09:18:27.564Z,96806.41
2023-05-19T09:21:01.208Z,96804.91
2023-05-19T09:23:36.015Z,96803.03
2023-05-19T09:26:09.180Z,96805.34
2023-05-19T09:28:38.486Z,96811.59
2023-05-19T09:31:08.479Z,96821.25
2023-05-19T09:33:40.359Z,96812.16
2023-05-19T09:36:13.867Z,96817.50
2023-05-19T09:38:43.152Z,96821.34
2023-05-19T09:41:15.178Z,96825.16
2023-05-19T09:43:44.057Z,96819.59
2023-05-19T09:46:14.464Z,96818.00
2023-05-19T09:48:44.486Z,96803.56
2023-05-19T09:51:13.602Z,96814.47
2023-05-19T09:53:42.999Z,96809.03
2023-05-19T09:56:12.093Z,96816.41
2023-05-19T09:58:42.779Z,96822.13
2023-05-19T10:01:12.712Z,96815.88
2023-05-19T10:03:43.232Z,96831.69
2023-05-19T10:06:12.410Z,96813.50
2023-05-19T10:08:42.987Z,96827.09
2023-05-19T10:11:12.892Z,96834.91
2023-05-19T10:13:42.014Z,96813.13
2023-05-19T10:16:11.636Z,96832.56
2023-05-19T10:18:42.024Z,96826.75
2023-05-19T10:21:13.065Z,96827.88
2023-05-19T10:23:42.646Z,96834.78
2023-05-19T10:26:12.729Z,96835.47
2023-05-19T10:28:46.279Z,96840.06
2023-05-19T10:31:20.081Z,96833.06
2023-05-19T10:34:03.979Z,96830.34
2023-05-19T10:36:46.506Z,96834.56
2023-05-19T10:39:33.777Z,96835.31
2023-05-19T10:42:16.524Z,96829.00
2023-05-19T10:45:03.391Z,96841.44
2023-05-19T10:47:35.579Z,96834.84
2023-05-19T10:50:07.266Z,96842.03
2023-05-19T10:52:40.511Z,96846.94
2023-05-19T10:55:10.904Z,96849.22
2023-05-19T10:57:55.106Z,96851.50
2023-05-19T11:00:29.890Z,96841.47
2023-05-19T11:03:24.521Z,96853.19
2023-05-19T11:05:53.495Z,96852.78
2023-05-19T11:08:42.571Z,96851.13
2023-05-19T11:11:16.830Z,96849.16
2023-05-19T11:13:51.150Z,96855.78
2023-05-19T11:16:27.172Z,96851.50
2023-05-19T11:18:57.543Z,96840.28
2023-05-19T11:21:43.322Z,96860.44
2023-05-19T11:24:38.896Z,96851.13
2023-05-19T11:27:20.996Z,96859.56
2023-05-19T11:29:50.468Z,96863.41
2023-05-19T11:32:22.442Z,96868.38
2023-05-19T11:34:51.968Z,96862.19
2023-05-19T11:37:20.806Z,96872.16
2023-05-19T11:39:50.135Z,96875.16
2023-05-19T11:42:19.188Z,96864.25
2023-05-19T11:44:48.293Z,96872.34
2023-05-19T11:47:18.051Z,96874.94
2023-05-19T11:49:50.350Z,96867.53
2023-05-19T11:52:22.824Z,96868.28
2023-05-19T11:54:52.145Z,96872.84
2023-05-19T11:57:21.760Z,96872.03
2023-05-19T11:59:52.898Z,96873.09
2023-05-19T12:02:26.906Z,96875.63
2023-05-19T12:04:56.157Z,96872.81
2023-05-19T12:07:26.690Z,96884.97
2023-05-19T12:09:56.589Z,96882.53
2023-05-19T12:12:25.710Z,96885.47
2023-05-19T12:14:54.595Z,96891.59
2023-05-19T12:17:26.406Z,96880.56
2023-05-19T12:19:55.357Z,96886.25
2023-05-19T12:22:24.526Z,96880.22
2023-05-19T12:24:53.502Z,96889.47
2023-05-19T12:27:27.087Z,96892.06
2023-05-19T12:30:00.813Z,96883.38
2023-05-19T12:32:30.636Z,96887.53
2023-05-19T12:34:59.970Z,96892.41
2023-05-19T12:37:30.811Z,96892.72
2023-05-19T12:40:00.701Z,96901.97
2023-05-19T12:42:35.966Z,96903.81
2023-05-19T12:45:05.689Z,96890.47
2023-05-19T12:47:36.722Z,96908.72
2023-05-19T12:50:10.751Z,96903.50
2023-05-19T12:52:45.252Z,96903.44
2023-05-19T12:55:15.073Z,96908.00
2023-05-19T12:57:58.649Z,96910.16
2023-05-19T13:00:33.579Z,96906.53
2023-05-19T13:03:05.842Z,96909.41
2023-05-19T13:05:40.825Z,96922.41
2023-05-19T13:08:10.759Z,96916.06
2023-05-19T13:10:41.163Z,96930.28
2023-05-19T13:13:10.930Z,96925.59
2023-05-19T13:15:43.176Z,96924.22
2023-05-19T13:18:13.576Z,96931.44
2023-05-19T13:20:45.101Z,96927.78
2023-05-19T13:23:15.177Z,96936.13
2023-05-19T13:25:44.889Z,96946.50
2023-05-19T13:28:14.288Z,96934.72
2023-05-19T13:30:45.153Z,96943.06
2023-05-19T13:33:14.294Z,96949.25
2023-05-19T13:35:43.242Z,96949.16
2023-05-19T13:38:12.521Z,96937.72
2023-05-19T13:40:41.582Z,96954.03
2023-05-19T13:43:10.497Z,96960.13
2023-05-19T13:45:40.191Z,96957.31
2023-05-19T13:48:09.574Z,96955.31
2023-05-19T13:50:38.737Z,96958.69
2023-05-19T13:53:08.060Z,96964.38
2023-05-19T13:55:37.325Z,96968.06
2023-05-19T13:58:06.229Z,96964.75
2023-05-19T14:00:37.413Z,96963.44
2023-05-19T14:03:06.620Z,96965.59
2023-05-19T14:05:36.360Z,96967.75
2023-05-19T14:08:06.444Z,96975.72
2023-05-19T14:10:36.421Z,96970.91
2023-05-19T14:13:29.912Z,96975.78
2023-05-19T14:15:54.967Z,96972.53
2023-05-19T14:18:24.355Z,96966.50
2023-05-19T14:20:53.231Z,96974.81
2023-05-19T14:23:22.263Z,96964.59
2023-05-19T14:25:51.503Z,96978.41
2023-05-19T14:28:20.372Z,96974.06
2023-05-19T14:30:50.096Z,96972.34
2023-05-19T14:33:20.121Z,96969.03
2023-05-19T14:35:49.289Z,96968.44
2023-05-19T14:38:18.416Z,96969.69
2023-05-19T14:40:49.010Z,96969.34
2023-05-19T14:43:17.942Z,96969.25
2023-05-19T14:45:46.999Z,96965.75
2023-05-19T14:48:16.526Z,96970.75
2023-05-19T14:50:45.982Z,96973.09
2023-05-19T14:53:15.641Z,96974.97
2023-05-19T14:55:44.989Z,96978.06
2023-05-19T14:58:27.471Z,96986.25
2023-05-19T15:01:00.313Z,96987.22
2023-05-19T15:03:29.634Z,96981.06
2023-05-19T15:05:59.094Z,96987.44
2023-05-19T15:08:28.140Z,96989.22
2023-05-19T15:10:57.425Z,96994.00
2023-05-19T15:13:26.939Z,96992.63
2023-05-19T15:16:08.266Z,96992.69
2023-05-19T15:18:45.184Z,96987.72
2023-05-19T15:21:14.312Z,96991.13
2023-05-19T15:23:43.324Z,96997.47
2023-05-19T15:26:12.561Z,97009.06
2023-05-19T15:28:41.651Z,97004.53
2023-05-19T15:31:11.283Z,97006.50
2023-05-19T15:33:40.245Z,97000.84
2023-05-19T15:36:09.544Z,97004.81
2023-05-19T15:38:39.801Z,97012.44
2023-05-19T15:41:09.376Z,97006.44
2023-05-19T15:43:38.546Z,97014.03
2023-05-19T15:46:07.579Z,97007.25
2023-05-19T15:48:36.778Z,97009.94
2023-05-19T15:51:06.362Z,97011.84
2023-05-19T15:53:35.446Z,97008.25
2023-05-19T15:56:04.913Z,97026.09
2023-05-19T15:58:34.396Z,97017.13
2023-05-19T16:01:04.579Z,97017.59
2023-05-19T16:03:34.120Z,97019.81
2023-05-19T16:06:03.063Z,97013.84
2023-05-19T16:08:32.478Z,97015.91
2023-05-19T16:11:01.515Z,97019.41
2023-05-19T16:13:31.393Z,97011.19
2023-05-19T16:16:01.228Z,97006.47
2023-05-19T16:18:30.460Z,97003.78
2023-05-19T16:20:59.580Z,97000.63
2023-05-19T16:23:28.435Z,97015.47
2023-05-19T16:25:58.180Z,97008.72
2023-05-19T16:28:28.538Z,97003.97
2023-05-19T16:31:01.272Z,97013.28
2023-05-19T16:33:30.654Z,97007.13
2023-05-19T16:36:00.500Z,97013.75
2023-05-19T16:38:29.457Z,97017.81
2023-05-19T16:40:58.410Z,97017.06
2023-05-19T16:43:27.370Z,97017.69
2023-05-19T16:45:56.422Z,97020.06
2023-05-19T16:48:25.644Z,97023.56
2023-05-19T16:50:54.693Z,97023.56
2023-05-19T16:53:23.592Z,97029.06
2023-05-19T16:55:52.625Z,97013.63
2023-05-19T16:58:21.686Z,97026.53
2023-05-19T17:00:55.163Z,97031.88
2023-05-19T17:03:25.293Z,97030.63
2023-05-19T17:05:54.529Z,97037.38
2023-05-19T17:08:23.688Z,97031.06
2023-05-19T17:10:53.522Z,97029.00
2023-05-19T17:13:22.680Z,97031.81
2023-05-19T17:15:54.657Z,97035.84
2023-05-19T17:18:23.858Z,97029.50
2023-05-19T17:20:52.913Z,97033.59
2023-05-19T17:23:22.180Z,97034.50
2023-05-19T17:25:55.909Z,97031.50
2023-05-19T17:28:26.338Z,97034.44
2023-05-19T17:30:55.505Z,97034.28
2023-05-19T17:33:24.807Z,97041.34
2023-05-19T17:35:54.010Z,97035.97
2023-05-19T17:38:23.022Z,97040.06
2023-05-19T17:40:54.494Z,97036.72
2023-05-19T17:43:23.371Z,97041.13
2023-05-19T17:45:52.716Z,97046.78
2023-05-19T17:48:22.037Z,97042.19
2023-05-19T17:50:51.053Z,97044.50
2023-05-19T17:53:20.240Z,97054.13
2023-05-19T17:55:58.846Z,97054.00
2023-05-19T17:58:28.628Z,97049.53
2023-05-19T18:00:58.892Z,97053.28
2023-05-19T18:03:28.413Z,97050.47
2023-05-19T18:05:58.761Z,97051.91
2023-05-19T18:08:29.321Z,97051.22
2023-05-19T18:10:58.856Z,97058.97
2023-05-19T18:13:28.028Z,97054.91
2023-05-19T18:15:58.348Z,97054.94
2023-05-19T18:18:27.362Z,97050.38
2023-05-19T18:20:56.436Z,97064.00
2023-05-19T18:23:25.488Z,97060.88
2023-05-19T18:25:54.568Z,97065.09
2023-05-19T18:28:24.939Z,97056.72
2023-05-19T18:31:05.316Z,97061.16
2023-05-19T18:33:34.553Z,97058.22
2023-05-19T18:36:03.729Z,97052.75
2023-05-19T18:38:32.785Z,97068.53
2023-05-19T18:41:06.964Z,97066.66
2023-05-19T18:43:36.159Z,97071.44
2023-05-19T18:46:05.320Z,97064.13
2023-05-19T18:48:35.950Z,97067.34
2023-05-19T18:51:05.553Z,97069.41
2023-05-19T18:53:38.146Z,97066.13
2023-05-19T18:56:07.638Z,97069.47
2023-05-19T18:58:36.966Z,97076.09
2023-05-19T19:01:07.307Z,97066.44
2023-05-19T19:03:36.574Z,97071.19
2023-05-19T19:06:05.678Z,97074.16
2023-05-19T19:08:34.898Z,97080.31
2023-05-19T19:11:04.591Z,97080.13
2023-05-19T19:13:33.621Z,97074.59
2023-05-19T19:16:02.649Z,97077.91
2023-05-19T19:18:31.768Z,97079.31
2023-05-19T19:21:03.217Z,97079.97
2023-05-19T19:23:33.022Z,97082.13
2023-05-19T19:26:02.216Z,97086.41
2023-05-19T19:28:31.351Z,97084.34
2023-05-19T19:31:00.253Z,97089.25
2023-05-19T19:33:29.291Z,97086.72
2023-05-19T19:35:58.392Z,97093.50
2023-05-19T19:38:27.430Z,97093.97
2023-05-19T19:40:56.373Z,97091.44
2023-05-19T19:43:25.441Z,97093.38
2023-05-19T19:46:05.217Z,97094.97
2023-05-19T19:48:34.392Z,97098.59
2023-05-19T19:51:03.453Z,97103.00
2023-05-19T19:53:32.380Z,97110.75
2023-05-19T19:56:02.593Z,97104.09
2023-05-19T19:58:31.753Z,97109.63
2023-05-19T20:01:04.496Z,97106.47
2023-05-19T20:03:34.023Z,97113.28
2023-05-19T20:06:03.111Z,97117.22
2023-05-19T20:08:32.164Z,97112.63
2023-05-19T20:11:01.159Z,97110.72
2023-05-19T20:13:32.587Z,97117.91
2023-05-19T20:16:02.074Z,97107.81
2023-05-19T20:18:31.069Z,97110.31
2023-05-19T20:21:00.069Z,97101.13
2023-05-19T20:23:29.180Z,97109.03
2023-05-19T20:26:10.828Z,97097.34
2023-05-19T20:28:42.236Z,97104.25
2023-05-19T20:31:11.370Z,97097.59
2023-05-19T20:33:40.455Z,97104.88
2023-05-19T20:36:11.663Z,97104.13
2023-05-19T20:38:41.065Z,97119.09
2023-05-19T20:41:10.084Z,97105.72
2023-05-19T20:43:38.990Z,97108.41
2023-05-19T20:46:08.002Z,97113.31
2023-05-19T20:48:37.071Z,97111.09
2023-05-19T20:51:06.379Z,97118.94
2023-05-19T20:53:35.475Z,97115.16
2023-05-19T20:56:05.810Z,97107.53
2023-05-19T20:58:34.706Z,97115.06
2023-05-19T21:01:04.794Z,97114.16
2023-05-19T21:03:34.164Z,97114.53
2023-05-19T21:06:03.161Z,97112.81
2023-05-19T21:08:32.174Z,97116.56
2023-05-19T21:11:01.039Z,97122.22
2023-05-19T21:13:29.993Z,97124.41
2023-05-19T21:15:58.938Z,97118.78
2023-05-19T21:18:29.037Z,97119.25
2023-05-19T21:20:57.880Z,97117.69
2023-05-19T21:23:26.721Z,97117.91
2023-05-19T21:25:55.653Z,97120.91
2023-05-19T21:28:24.472Z,97119.69
2023-05-19T21:30:53.429Z,97124.72
2023-05-19T21:33:22.737Z,97125.34
2023-05-19T21:35:51.613Z,97125.94
2023-05-19T21:38:24.043Z,97123.63
2023-05-19T21:40:54.078Z,97128.22
2023-05-19T21:43:23.179Z,97127.47
2023-05-19T21:45:52.066Z,97131.25
2023-05-19T21:48:22.018Z,97129.22
2023-05-19T21:50:55.378Z,97133.94
2023-05-19T21:53:25.429Z,97138.84
2023-05-19T21:55:54.470Z,97134.13
2023-05-19T21:58:23.386Z,97137.94
2023-05-19T22:00:55.175Z,97142.50
2023-05-19T22:03:25.347Z,97147.38
2023-05-19T22:05:55.812Z,97143.59
2023-05-19T22:08:25.159Z,97151.63
2023-05-19T22:10:54.319Z,97153.66
2023-05-19T22:13:23.141Z,97152.34
2023-05-19T22:15:52.113Z,97150.44
2023-05-19T22:18:21.306Z,97158.31
2023-05-19T22:20:50.303Z,97168.56
2023-05-19T22:23:19.292Z,97171.88
2023-05-19T22:25:48.276Z,97174.00
2023-05-19T22:28:17.257Z,97181.06
2023-05-19T22:30:46.446Z,97174.13
2023-05-19T22:33:15.657Z,97176.31
2023-05-19T22:35:44.528Z,97176.19
2023-05-19T22:38:13.497Z,97176.53
2023-05-19T22:40:42.375Z,97186.84
2023-05-19T22:43:11.291Z,97182.72
2023-05-19T22:45:40.211Z,97194.56
2023-05-19T22:48:09.265Z,97187.28
2023-05-19T22:50:38.257Z,97194.66
2023-05-19T22:53:07.218Z,97193.34
2023-05-19T22:55:36.510Z,97195.22
2023-05-19T22:58:06.890Z,97199.63
2023-05-19T23:00:36.424Z,97209.41
2023-05-19T23:03:05.439Z,97206.53
2023-05-19T23:05:34.562Z,97203.91
2023-05-19T23:08:03.634Z,97203.50
2023-05-19T23:10:32.485Z,97203.25
2023-05-19T23:13:01.476Z,97212.19
2023-05-19T23:15:30.538Z,97216.47
2023-05-19T23:17:59.452Z,97216.91
2023-05-19T23:20:28.418Z,97221.81
2023-05-19T23:22:57.273Z,97226.34
2023-05-19T23:25:26.251Z,97219.25
2023-05-19T23:27:55.245Z,97230.84
2023-05-19T23:30:24.146Z,97228.44
2023-05-19T23:32:53.555Z,97233.31
2023-05-19T23:35:22.551Z,97238.59
2023-05-19T23:37:51.469Z,97241.50
2023-05-19T23:40:20.501Z,97242.44
2023-05-19T23:42:49.718Z,97240.53
2023-05-19T23:45:18.609Z,97241.34
2023-05-19T23:47:49.435Z,97246.25
2023-05-19T23:50:18.429Z,97246.81
2023-05-19T23:52:48.669Z,97243.50
2023-05-19T23:55:18.086Z,97250.91
2023-05-19T23:57:47.100Z,97251.47
